Time;durP1;ratioP1;P1;durP2;ratioP2;P2;SDS_P1;SDS_P2;PMS_P1;PMS_P2;Temp;Humidity;BMP_temperature;BMP_pressure;BME280_temperature;BME280_humidity;BME280_pressure;Samples;Min_cycle;Max_cycle;Signal;HPM_P1;HPM_P2
2022/09/21 00:01:21;;;;;;;5.78;3.80;;;;;;;14.45;57.48;102555.53;4871859;28;123674;-70
2022/09/21 00:03:53;;;;;;;7.82;4.00;;;;;;;14.45;57.54;102551.09;4869732;28;118243;-70
2022/09/21 00:06:23;;;;;;;7.82;4.25;;;;;;;14.45;57.42;102556.44;4868298;28;119224;-69
2022/09/21 00:08:51;;;;;;;8.20;4.05;;;;;;;14.46;57.47;102558.16;4871870;28;123863;-70
2022/09/21 00:11:23;;;;;;;6.18;4.10;;;;;;;14.46;57.60;102558.16;4872711;28;123687;-70
2022/09/21 00:13:53;;;;;;;6.68;4.13;;;;;;;14.46;57.43;102552.81;4867406;28;118922;-69
2022/09/21 00:16:21;;;;;;;7.10;3.83;;;;;;;14.47;57.60;102549.25;4873099;28;118887;-70
2022/09/21 00:18:48;;;;;;;9.52;4.25;;;;;;;14.49;57.56;102558.06;4884080;28;123102;-70
2022/09/21 00:21:16;;;;;;;7.13;3.92;;;;;;;14.50;57.51;102564.25;4870723;28;124319;-70
2022/09/21 00:23:44;;;;;;;7.60;3.90;;;;;;;14.51;57.71;102556.22;4871538;28;119530;-70
2022/09/21 00:26:18;;;;;;;8.27;4.45;;;;;;;14.52;57.78;102552.63;4865990;28;120467;-70
2022/09/21 00:28:45;;;;;;;7.32;4.30;;;;;;;14.53;57.78;102554.34;4867086;28;123836;-69
2022/09/21 00:31:15;;;;;;;7.68;4.32;;;;;;;14.55;57.86;102557.84;4881056;28;124063;-70
2022/09/21 00:33:42;;;;;;;6.35;3.70;;;;;;;14.55;57.80;102557.84;4870427;28;120737;-69
2022/09/21 00:36:13;;;;;;;6.03;4.07;;;;;;;14.55;57.83;102549.84;4874826;28;119717;-70
2022/09/21 00:38:40;;;;;;;8.95;4.18;;;;;;;14.55;57.75;102549.84;4871269;28;123939;-69
2022/09/21 00:41:11;;;;;;;7.28;4.07;;;;;;;14.56;57.78;102548.94;4866548;28;123243;-69
2022/09/21 00:44:08;;;;;;;8.02;4.30;;;;;;;14.56;57.70;102553.38;4869858;28;120079;-70
2022/09/21 00:46:37;;;;;;;7.18;4.10;;;;;;;14.55;57.75;102552.50;4868350;28;120101;-69
2022/09/21 00:49:05;;;;;;;6.38;4.05;;;;;;;14.55;58.03;102555.16;4870386;28;124671;-70
2022/09/21 00:51:33;;;;;;;6.13;3.90;;;;;;;14.56;57.98;102548.94;4870742;28;123778;-69
2022/09/21 00:54:15;;;;;;;9.15;3.72;;;;;;;14.57;57.90;102550.69;4869832;28;119364;-70
2022/09/21 00:56:43;;;;;;;6.15;3.65;;;;;;;14.57;57.79;102553.34;4870772;28;117905;-69
2022/09/21 00:59:13;;;;;;;5.60;3.65;;;;;;;14.56;57.75;102554.25;4872202;28;122762;-70
2022/09/21 01:01:41;;;;;;;7.38;3.80;;;;;;;14.56;57.74;102554.25;4871108;28;124308;-69
2022/09/21 01:04:10;;;;;;;7.45;3.67;;;;;;;14.56;57.86;102554.25;4869498;28;118359;-69
2022/09/21 01:06:39;;;;;;;7.28;4.05;;;;;;;14.54;57.72;102556.13;4876436;28;118806;-70
2022/09/21 01:09:06;;;;;;;6.22;3.95;;;;;;;14.55;57.86;102563.16;4883643;28;123821;-69
2022/09/21 01:11:53;;;;;;;6.43;3.78;;;;;;;14.55;57.84;102551.66;4883077;28;123048;-70
2022/09/21 01:14:59;;;;;;;5.68;3.72;;;;;;;14.53;57.81;102559.69;4866493;28;118931;-70
2022/09/21 01:17:53;;;;;;;6.82;3.70;;;;;;;14.51;58.00;102556.22;4868828;28;118653;-70
2022/09/21 01:20:48;;;;;;;8.43;3.70;;;;;;;14.50;57.89;102559.78;4870125;28;124241;-70
2022/09/21 01:23:43;;;;;;;6.57;3.77;;;;;;;14.48;57.77;102561.63;4867897;28;124833;-69
2022/09/21 01:26:22;;;;;;;7.85;4.15;;;;;;;14.47;57.76;102565.25;4883657;28;118203;-70
2022/09/21 01:29:15;;;;;;;5.32;3.70;;;;;;;14.45;57.71;102561.75;4867634;28;118986;-70
2022/09/21 01:31:52;;;;;;;7.72;3.38;;;;;;;14.44;57.85;102560.00;4867375;28;123899;-70
2022/09/21 01:34:42;;;;;;;6.53;3.85;;;;;;;14.42;57.64;102561.84;4878194;28;123675;-69
2022/09/21 01:37:18;;;;;;;5.78;3.97;;;;;;;14.40;57.67;102558.38;4883320;28;118363;-70
2022/09/21 01:39:51;;;;;;;6.07;3.45;;;;;;;14.38;57.61;102568.22;4867075;28;119751;-69
2022/09/21 01:42:20;;;;;;;7.82;3.67;;;;;;;14.35;57.50;102565.63;4868462;28;124498;-70
2022/09/21 01:44:48;;;;;;;6.07;3.95;;;;;;;14.30;57.56;102562.28;4869519;28;123674;-69
2022/09/21 01:47:17;;;;;;;7.00;3.72;;;;;;;14.28;57.85;102564.09;4869459;28;119863;-70
2022/09/21 01:49:48;;;;;;;5.32;3.40;;;;;;;14.25;57.76;102565.06;4869718;28;119024;-70
2022/09/21 01:52:28;;;;;;;7.13;3.70;;;;;;;14.21;57.94;102564.31;4865853;28;124995;-70
2022/09/21 01:55:03;;;;;;;7.57;3.70;;;;;;;14.19;57.70;102560.81;4868963;28;123937;-69
2022/09/21 01:57:42;;;;;;;8.20;3.50;;;;;;;14.16;57.85;102560.91;4875656;28;120281;-70
2022/09/21 02:00:09;;;;;;;6.07;3.38;;;;;;;14.14;57.65;102562.75;4869593;28;118684;-69
2022/09/21 02:02:52;;;;;;;6.07;3.45;;;;;;;14.12;57.63;102559.28;4870052;28;123974;-69
2022/09/21 02:05:22;;;;;;;7.03;3.53;;;;;;;14.10;57.60;102561.09;4867558;28;123898;-69
2022/09/21 02:07:51;;;;;;;8.77;3.67;;;;;;;14.08;57.68;102557.63;4867187;28;118435;-70
2022/09/21 02:10:23;;;;;;;5.80;3.55;;;;;;;14.05;57.75;102565.72;4871669;28;119893;-70
2022/09/21 02:12:59;;;;;;;4.93;3.40;;;;;;;14.03;57.64;102562.22;4883871;28;122811;-69
2022/09/21 02:15:40;;;;;;;5.60;3.38;;;;;;;13.98;57.60;102569.50;4868521;28;124241;-69
2022/09/21 02:18:24;;;;;;;5.55;3.40;;;;;;;13.95;57.70;102566.94;4870598;28;119030;-70
2022/09/21 02:20:57;;;;;;;7.23;3.30;;;;;;;13.91;57.73;102565.28;4868742;28;119567;-70
2022/09/21 02:23:42;;;;;;;7.13;3.60;;;;;;;13.86;57.61;102569.88;4867552;28;124193;-69
2022/09/21 02:26:42;;;;;;;6.27;3.47;;;;;;;13.77;57.58;102563.94;4882500;28;123386;-69
2022/09/21 02:29:18;;;;;;;6.82;3.30;;;;;;;13.72;57.66;102565.84;4868175;28;120252;-69
2022/09/21 02:32:04;;;;;;;4.85;3.28;;;;;;;13.69;57.60;102560.63;4868235;28;119834;-70
2022/09/21 02:34:39;;;;;;;6.07;3.13;;;;;;;13.63;57.64;102560.81;4870312;28;123518;-70
2022/09/21 02:37:15;;;;;;;4.93;3.00;;;;;;;13.58;57.68;102562.72;4870844;28;123952;-70
2022/09/21 02:39:50;;;;;;;7.72;3.38;;;;;;;13.54;57.43;102566.41;4870055;28;118976;-70
2022/09/21 02:42:25;;;;;;;6.38;3.53;;;;;;;13.50;57.47;102564.75;4863467;28;118838;-69
2022/09/21 02:45:01;;;;;;;5.90;3.17;;;;;;;13.46;57.68;102563.13;4869470;28;124162;-70
2022/09/21 02:47:31;;;;;;;5.13;3.40;;;;;;;13.40;57.50;102559.69;4885544;28;123406;-70
2022/09/21 02:50:05;;;;;;;6.97;3.55;;;;;;;13.36;57.54;102558.06;4874441;28;119704;-70
2022/09/21 02:52:34;;;;;;;5.30;3.20;;;;;;;13.31;57.51;102554.66;4870103;28;119222;-70
2022/09/21 02:55:02;;;;;;;7.57;3.72;;;;;;;13.27;57.32;102552.97;4871057;28;124725;-69
2022/09/21 02:57:30;;;;;;;5.95;3.47;;;;;;;13.22;57.29;102555.78;4873759;28;124859;-69
2022/09/21 02:59:57;;;;;;;8.38;3.80;;;;;;;13.15;57.28;102554.19;4886902;28;120046;-70
2022/09/21 03:02:35;;;;;;;8.50;4.10;;;;;;;13.10;57.58;102555.25;4887376;28;96831;-69
2022/09/21 03:05:02;;;;;;;5.60;3.45;;;;;;;13.04;57.59;102556.28;4866173;28;124738;-70
2022/09/21 03:07:29;;;;;;;7.80;3.25;;;;;;;13.00;57.82;102555.50;4872355;28;123901;-70
2022/09/21 03:09:57;;;;;;;8.15;3.95;;;;;;;12.97;57.69;102554.69;4871987;28;119386;-70
2022/09/21 03:12:25;;;;;;;6.60;3.78;;;;;;;12.93;57.93;102559.22;4872518;28;118828;-69
2022/09/21 03:14:52;;;;;;;7.65;3.50;;;;;;;12.91;57.83;102561.06;4871249;28;123567;-69
2022/09/21 03:17:19;;;;;;;6.90;4.15;;;;;;;12.89;57.98;102557.56;4871644;28;124482;-69
2022/09/21 03:19:46;;;;;;;5.13;3.65;;;;;;;12.86;57.78;102557.66;4872757;28;121345;-69
2022/09/21 03:22:13;;;;;;;7.05;3.90;;;;;;;12.83;57.78;102560.41;4871816;28;120029;-70
2022/09/21 03:24:45;;;;;;;5.55;3.63;;;;;;;12.80;57.63;102566.66;4871842;28;124442;-69
2022/09/21 03:27:18;;;;;;;7.70;3.45;;;;;;;12.75;57.80;102557.06;4872304;28;124215;-70
2022/09/21 03:29:46;;;;;;;5.50;3.58;;;;;;;12.70;58.01;102561.66;4869155;28;119381;-69
2022/09/21 03:32:13;;;;;;;6.63;3.38;;;;;;;12.66;57.93;102561.72;4868525;28;118507;-70
2022/09/21 03:34:40;;;;;;;5.55;3.20;;;;;;;12.62;57.90;102565.38;4870399;28;125098;-69
2022/09/21 03:37:08;;;;;;;6.22;3.20;;;;;;;12.57;57.94;102572.59;4871927;28;123854;-70
2022/09/21 03:39:35;;;;;;;5.05;3.17;;;;;;;12.53;57.76;102565.63;4868937;28;119232;-69
2022/09/21 03:42:03;;;;;;;4.07;3.25;;;;;;;12.49;57.90;102571.91;4870013;28;118803;-69
2022/09/21 03:44:30;;;;;;;5.57;3.25;;;;;;;12.46;57.96;102574.66;4856368;28;123563;-69
2022/09/21 03:46:57;;;;;;;8.10;3.45;;;;;;;12.42;57.87;102578.28;4869988;28;123924;-70
2022/09/21 03:49:24;;;;;;;6.72;3.60;;;;;;;12.38;58.09;102584.59;4872696;28;119250;-70
2022/09/21 03:51:51;;;;;;;8.05;3.65;;;;;;;12.34;57.79;102585.56;4883382;28;118772;-70
2022/09/21 03:54:18;;;;;;;5.22;3.67;;;;;;;12.29;57.86;102588.34;4871641;28;124025;-70
2022/09/21 03:56:45;;;;;;;9.27;3.70;;;;;;;12.25;57.99;102590.19;4870655;28;123295;-70
2022/09/21 03:59:12;;;;;;;4.10;3.33;;;;;;;12.22;58.05;102587.63;4875287;28;119387;-70
2022/09/21 04:01:41;;;;;;;6.25;4.20;;;;;;;12.19;57.98;102585.03;4871719;28;118966;-70
2022/09/21 04:04:09;;;;;;;8.45;4.43;;;;;;;12.16;58.39;102587.75;4871927;28;123998;-70
2022/09/21 04:06:36;;;;;;;7.28;4.40;;;;;;;12.14;58.41;102586.06;4868564;28;123917;-71
2022/09/21 04:09:03;;;;;;;6.95;4.00;;;;;;;12.10;58.49;102585.25;4871034;28;119469;-70
2022/09/21 04:11:31;;;;;;;7.93;3.88;;;;;;;12.09;58.43;102580.84;4874184;28;120202;-70
2022/09/21 04:13:58;;;;;;;7.88;3.95;;;;;;;12.07;58.37;102578.25;4871141;28;124015;-70
2022/09/21 04:16:26;;;;;;;6.45;4.30;;;;;;;12.06;58.77;102575.63;4872144;28;123902;-70
2022/09/21 04:18:54;;;;;;;7.68;3.75;;;;;;;12.05;58.74;102573.88;4871925;28;119312;-70
2022/09/21 04:21:21;;;;;;;6.03;4.03;;;;;;;12.03;58.68;102575.69;4869687;28;118771;-70
2022/09/21 04:23:48;;;;;;;5.65;3.50;;;;;;;12.01;58.56;102577.50;4871814;28;124477;-71
2022/09/21 04:26:30;;;;;;;6.85;3.40;;;;;;;11.98;58.50;102572.25;4873313;28;124589;-69
2022/09/21 04:28:58;;;;;;;6.90;3.65;;;;;;;11.96;58.26;102579.38;4871327;28;119887;-69
2022/09/21 04:31:26;;;;;;;7.90;4.00;;;;;;;11.93;58.12;102582.13;4869535;28;119577;-70
2022/09/21 04:33:55;;;;;;;5.93;3.50;;;;;;;11.90;58.29;102582.19;4879437;28;124060;-70
2022/09/21 04:36:24;;;;;;;6.43;3.83;;;;;;;11.85;58.34;102579.63;4870620;28;123945;-70
2022/09/21 04:38:51;;;;;;;6.40;3.85;;;;;;;11.82;58.22;102583.19;4871111;28;119226;-70
2022/09/21 04:41:18;;;;;;;7.95;3.70;;;;;;;11.78;58.19;102581.53;4869830;28;118614;-70
2022/09/21 04:43:47;;;;;;;7.68;3.88;;;;;;;11.74;58.31;102587.81;4870717;28;122326;-70
2022/09/21 04:46:16;;;;;;;5.95;3.67;;;;;;;11.69;58.27;102592.34;4869417;28;124679;-70
2022/09/21 04:48:43;;;;;;;7.97;3.65;;;;;;;11.68;58.39;102595.91;4870596;28;119904;-70
2022/09/21 04:51:12;;;;;;;8.38;3.90;;;;;;;11.64;58.44;102599.50;4871181;28;118274;-70
2022/09/21 04:53:42;;;;;;;6.38;3.60;;;;;;;11.62;58.24;102601.31;4871794;28;124318;-70
2022/09/21 04:56:11;;;;;;;7.20;3.30;;;;;;;11.59;58.50;102599.63;4879963;28;123905;-71
2022/09/21 04:58:38;;;;;;;5.38;3.65;;;;;;;11.55;58.22;102597.94;4869275;28;120607;-68
2022/09/21 05:01:06;;;;;;;5.13;3.67;;;;;;;11.53;58.23;102601.53;4871245;28;120844;-68
2022/09/21 05:03:34;;;;;;;4.97;3.65;;;;;;;11.48;58.26;102594.53;4869916;28;123857;-68
2022/09/21 05:06:01;;;;;;;7.75;3.70;;;;;;;11.46;58.16;102599.00;4870066;28;124589;-69
2022/09/21 05:11:17;;;;;;;;;;;;;;;11.37;57.96;102601.84;4873753;28;120137;-70
2022/09/21 05:13:45;;;;;;;6.65;3.72;;;;;;;11.35;57.92;102608.09;4868990;28;124105;-71
2022/09/21 05:16:14;;;;;;;5.35;3.33;;;;;;;11.30;58.17;102610.81;4870371;28;123762;-70
2022/09/21 05:18:41;;;;;;;5.75;3.45;;;;;;;11.27;58.34;102616.19;4870442;28;119351;-70
2022/09/21 05:21:09;;;;;;;7.18;3.83;;;;;;;11.22;58.27;102612.75;4867721;28;119535;-70
2022/09/21 05:23:37;;;;;;;6.32;3.70;;;;;;;11.19;58.25;102618.09;4883631;28;123380;-70
2022/09/21 05:26:04;;;;;;;5.63;3.95;;;;;;;11.15;58.35;102611.13;4871346;28;124275;-70
2022/09/21 05:28:32;;;;;;;6.82;4.13;;;;;;;11.13;58.21;102618.22;4872409;28;119178;-69
2022/09/21 05:31:19;;;;;;;8.50;4.15;;;;;;;11.09;58.23;102618.31;4869404;28;118428;-70
2022/09/21 05:33:49;;;;;;;5.80;3.80;;;;;;;11.08;58.32;102619.19;4867113;28;124352;-70
2022/09/21 05:36:47;;;;;;;9.00;3.78;;;;;;;11.05;58.45;102621.88;4869744;28;125555;-70
2022/09/21 05:39:14;;;;;;;5.40;3.38;;;;;;;11.03;58.36;102625.47;4866279;28;119557;-70
2022/09/21 05:41:41;;;;;;;6.60;3.40;;;;;;;11.02;58.61;102632.56;4869889;28;118936;-69
2022/09/21 05:44:13;;;;;;;7.07;3.55;;;;;;;11.00;58.39;102629.06;4868628;28;124240;-70
2022/09/21 05:46:47;;;;;;;5.65;3.10;;;;;;;11.00;58.82;102638.78;4880870;28;122896;-70
2022/09/21 05:49:31;;;;;;;6.60;3.55;;;;;;;10.99;58.61;102631.75;4878233;28;119323;-69
2022/09/21 05:52:21;;;;;;;5.25;3.15;;;;;;;10.98;58.63;102630.88;4866140;28;120213;-68
2022/09/21 05:55:28;;;;;;;5.63;3.13;;;;;;;10.98;58.78;102641.50;4870201;28;124019;-69
2022/09/21 05:58:25;;;;;;;9.20;3.63;;;;;;;10.96;58.77;102647.69;4875231;28;123967;-70
2022/09/21 06:01:06;;;;;;;6.78;3.95;;;;;;;10.94;58.71;102650.38;4871569;28;118105;-69
2022/09/21 06:03:35;;;;;;;6.15;3.50;;;;;;;10.95;58.67;102649.47;4874204;28;119036;-67
2022/09/21 06:06:02;;;;;;;7.28;3.15;;;;;;;10.96;58.75;102651.22;4877221;28;124309;-68
2022/09/21 06:08:29;;;;;;;5.75;2.97;;;;;;;10.97;59.00;102655.63;4864765;28;123703;-68
2022/09/21 06:10:56;;;;;;;4.85;3.22;;;;;;;10.98;58.73;102660.06;4866952;28;119352;-67
2022/09/21 06:13:23;;;;;;;7.35;3.22;;;;;;;11.01;59.13;102667.94;4867116;28;117899;-68
2022/09/21 06:15:50;;;;;;;8.57;4.40;;;;;;;11.03;59.15;102663.47;4874551;28;124703;-68
2022/09/21 06:18:17;;;;;;;7.15;4.30;;;;;;;11.07;59.32;102673.13;4881451;28;123649;-69
2022/09/21 06:20:45;;;;;;;8.48;4.35;;;;;;;11.15;59.77;102674.75;4875978;28;119827;-68
2022/09/21 06:23:12;;;;;;;8.52;4.13;;;;;;;11.21;59.71;102664.06;4876017;28;119520;-69
2022/09/21 06:25:40;;;;;;;13.05;4.90;;;;;;;11.31;59.72;102673.59;4870931;28;123989;-69
2022/09/21 06:28:12;;;;;;;5.50;3.80;;;;;;;11.42;60.34;102665.44;4884062;28;124373;-69
2022/09/21 06:30:41;;;;;;;8.13;4.45;;;;;;;11.55;60.21;102668.72;4877866;28;119767;-68
2022/09/21 06:33:08;;;;;;;5.85;3.58;;;;;;;11.68;60.32;102667.56;4882076;28;118848;-69
2022/09/21 06:35:35;;;;;;;8.68;4.20;;;;;;;11.81;60.40;102666.41;4877629;28;123371;-69
2022/09/21 06:38:05;;;;;;;5.93;4.13;;;;;;;11.96;60.37;102669.66;4872794;28;124041;-69
2022/09/21 06:40:34;;;;;;;7.88;4.07;;;;;;;12.13;60.76;102667.53;4869600;28;120009;-69
2022/09/21 06:43:02;;;;;;;12.80;4.90;;;;;;;12.34;61.03;102659.97;4883677;28;119446;-68
2022/09/21 06:45:30;;;;;;;12.32;5.18;;;;;;;12.53;60.85;102666.59;4871209;28;124071;-69
2022/09/21 06:47:57;;;;;;;9.25;4.82;;;;;;;12.75;60.82;102666.06;4869456;28;123867;-69
2022/09/21 06:50:24;;;;;;;8.88;5.65;;;;;;;12.94;61.16;102667.38;4860793;28;119273;-69
2022/09/21 06:52:51;;;;;;;12.07;6.55;;;;;;;13.15;61.24;102662.41;4869896;28;119367;-69
2022/09/21 06:55:19;;;;;;;11.95;7.10;;;;;;;13.39;61.36;102656.44;4868660;28;124327;-69
2022/09/21 06:57:46;;;;;;;13.30;6.88;;;;;;;13.60;61.28;102656.78;4853243;28;122862;-69
2022/09/21 07:00:13;;;;;;;13.23;6.85;;;;;;;13.78;61.00;102658.88;4871181;28;119314;-69
2022/09/21 07:02:44;;;;;;;11.05;6.10;;;;;;;13.94;61.03;102661.09;4866733;28;118751;-69
2022/09/21 07:05:12;;;;;;;8.90;5.68;;;;;;;14.11;60.75;102657.91;4864317;28;124724;-70
2022/09/21 07:07:39;;;;;;;7.47;5.22;;;;;;;14.28;60.74;102657.38;4877237;28;123300;-70
2022/09/21 07:10:07;;;;;;;9.27;5.65;;;;;;;14.42;60.37;102657.81;4863874;28;119336;-69
2022/09/21 07:12:40;;;;;;;10.00;5.57;;;;;;;14.53;60.15;102661.00;4856988;28;119082;-69
2022/09/21 07:15:09;;;;;;;10.38;5.72;;;;;;;14.64;60.09;102657.16;4871346;28;124105;-70
2022/09/21 07:17:38;;;;;;;14.43;5.47;;;;;;;14.74;60.05;102661.25;4870431;28;124540;-69
2022/09/21 07:20:06;;;;;;;7.20;5.13;;;;;;;14.85;60.58;102660.91;4868082;28;118293;-70
2022/09/21 07:22:34;;;;;;;13.50;5.57;;;;;;;14.98;60.24;102663.09;4870085;28;119618;-69
2022/09/21 07:25:03;;;;;;;10.02;5.40;;;;;;;15.10;59.94;102650.25;4852690;28;123372;-70
2022/09/21 07:27:32;;;;;;;9.15;5.50;;;;;;;15.20;59.87;102657.03;4889626;28;122651;-69
2022/09/21 07:29:59;;;;;;;9.25;5.53;;;;;;;15.30;59.77;102653.09;4872523;28;121467;-70
2022/09/21 07:32:26;;;;;;;10.88;5.65;;;;;;;15.43;59.62;102658.00;4871948;28;119925;-70
2022/09/21 07:34:55;;;;;;;9.75;5.80;;;;;;;15.56;59.58;102660.16;4872163;28;123896;-70
2022/09/21 07:37:26;;;;;;;6.75;4.97;;;;;;;15.71;59.51;102653.38;4871468;28;123798;-69
2022/09/21 07:39:54;;;;;;;10.38;4.80;;;;;;;15.84;59.34;102652.91;4878113;28;120011;-70
2022/09/21 07:42:21;;;;;;;7.07;5.18;;;;;;;15.94;59.12;102648.97;4876830;28;119439;-70
2022/09/21 07:44:49;;;;;;;6.97;5.00;;;;;;;16.06;59.18;102659.19;4872200;28;124087;-70
2022/09/21 07:47:17;;;;;;;11.50;5.35;;;;;;;16.19;58.70;102653.38;4870155;28;123723;-70
2022/09/21 07:49:45;;;;;;;8.27;5.00;;;;;;;16.28;58.36;102647.66;4872005;28;119671;-70
2022/09/21 07:52:14;;;;;;;8.88;5.20;;;;;;;16.32;58.06;102644.78;4872335;28;118832;-69
2022/09/21 07:54:41;;;;;;;11.23;5.10;;;;;;;16.39;58.00;102644.53;4873188;28;123783;-69
2022/09/21 07:59:57;;;;;;;;;;;;;;;16.52;58.12;102641.31;4886245;28;118903;-70
2022/09/21 08:02:24;;;;;;;11.70;4.65;;;;;;;16.57;57.63;102649.13;4883494;28;119063;-70
2022/09/21 08:04:52;;;;;;;8.32;4.78;;;;;;;16.63;57.66;102637.28;4886995;28;123217;-69
2022/09/21 08:07:19;;;;;;;7.68;4.88;;;;;;;16.70;57.67;102641.47;4877496;28;122784;-70
2022/09/21 08:09:48;;;;;;;10.32;4.35;;;;;;;16.77;57.34;102645.63;4871639;28;119170;-70
2022/09/21 08:12:17;;;;;;;6.57;3.92;;;;;;;16.84;57.28;102636.44;4879280;28;118665;-70
2022/09/21 08:14:44;;;;;;;7.97;4.00;;;;;;;16.90;56.93;102641.53;4885196;28;123815;-70
2022/09/21 08:17:12;;;;;;;8.68;4.03;;;;;;;16.94;56.73;102647.63;4860324;28;124469;-70
2022/09/21 08:19:39;;;;;;;7.22;4.00;;;;;;;17.01;56.70;102637.50;4882144;28;120388;-70
2022/09/21 08:22:06;;;;;;;9.18;4.53;;;;;;;17.06;56.44;102646.19;4875478;28;120077;-70
2022/09/21 08:24:34;;;;;;;9.98;4.40;;;;;;;17.08;56.62;102638.97;4877942;28;123876;-70
2022/09/21 08:27:01;;;;;;;6.05;3.88;;;;;;;17.12;56.61;102645.94;4885653;28;124549;-69
2022/09/21 08:29:29;;;;;;;7.28;4.10;;;;;;;17.18;56.58;102645.69;4895321;28;117906;-70
2022/09/21 08:31:56;;;;;;;10.63;3.50;;;;;;;17.26;56.45;102643.53;4883509;28;119845;-70
2022/09/21 08:34:25;;;;;;;8.32;3.55;;;;;;;17.38;56.63;102646.59;4869535;28;123434;-69
2022/09/21 08:36:52;;;;;;;7.43;3.30;;;;;;;17.50;56.63;102649.59;4870539;28;122779;-69
2022/09/21 08:39:22;;;;;;;5.85;3.15;;;;;;;17.63;56.37;102647.22;4885034;28;118793;-70
2022/09/21 08:42:11;;;;;;;7.15;3.33;;;;;;;17.78;56.25;102650.13;4871972;28;119182;-70
2022/09/21 08:44:47;;;;;;;6.00;3.13;;;;;;;17.94;55.98;102656.53;4868642;28;126969;-70
2022/09/21 08:47:20;;;;;;;5.97;3.35;;;;;;;18.08;55.88;102659.44;4869166;28;124500;-69
2022/09/21 08:49:53;;;;;;;7.72;3.25;;;;;;;18.22;54.86;102655.22;4880669;28;119936;-70
2022/09/21 08:52:23;;;;;;;8.00;3.03;;;;;;;18.32;54.87;102648.47;4871324;28;118670;-69
2022/09/21 08:54:55;;;;;;;6.70;2.50;;;;;;;18.42;53.99;102652.44;4871293;28;124512;-70
2022/09/21 08:57:31;;;;;;;4.18;2.50;;;;;;;18.48;53.77;102652.13;4880760;28;125108;-69
2022/09/21 09:00:00;;;;;;;8.70;2.72;;;;;;;18.56;53.62;102648.22;4871624;28;119635;-70
2022/09/21 09:02:52;;;;;;;9.40;2.65;;;;;;;18.61;53.36;102651.50;4887521;28;118955;-70
2022/09/21 09:06:00;;;;;;;6.97;2.50;;;;;;;18.67;53.24;102653.91;4871600;28;124747;-69
2022/09/21 09:08:54;;;;;;;10.38;2.38;;;;;;;18.76;53.25;102658.81;4871254;28;123564;-70
2022/09/21 09:11:51;;;;;;;4.22;2.35;;;;;;;18.82;52.90;102649.63;4870145;28;120844;-70
2022/09/21 09:14:48;;;;;;;6.50;2.53;;;;;;;18.89;52.55;102655.53;4876585;28;119803;-70
2022/09/21 09:17:25;;;;;;;7.03;2.85;;;;;;;18.98;52.58;102655.06;4867377;28;124015;-70
2022/09/21 09:20:04;;;;;;;6.47;2.50;;;;;;;19.05;52.75;102661.84;4868059;28;123768;-70
2022/09/21 09:22:39;;;;;;;5.25;2.55;;;;;;;19.14;52.13;102656.00;4876416;28;119232;-69
2022/09/21 09:25:24;;;;;;;7.43;2.47;;;;;;;19.21;51.83;102660.09;4869830;28;119028;-70
2022/09/21 09:27:55;;;;;;;5.83;2.20;;;;;;;19.27;51.82;102666.97;4880675;28;123646;-70
2022/09/21 09:30:29;;;;;;;5.70;1.50;;;;;;;19.30;50.74;102655.19;4875337;28;123741;-70
2022/09/21 09:33:06;;;;;;;4.90;1.70;;;;;;;19.30;50.11;102660.56;4879620;28;119647;-70
2022/09/21 09:35:44;;;;;;;5.70;1.70;;;;;;;19.31;50.48;102662.28;4867433;28;119495;-70
2022/09/21 09:38:26;;;;;;;5.32;1.40;;;;;;;19.32;50.23;102664.88;4879707;28;124189;-70
2022/09/21 09:41:18;;;;;;;2.15;0.85;;;;;;;19.34;49.72;102662.97;4869512;28;123931;-69
2022/09/21 09:44:05;;;;;;;6.03;1.30;;;;;;;19.37;49.32;102662.84;4869439;28;119018;-70
2022/09/21 09:47:03;;;;;;;5.97;1.30;;;;;;;19.43;49.08;102661.63;4868509;28;119289;-70
2022/09/21 09:49:34;;;;;;;5.03;1.05;;;;;;;19.53;49.21;102667.38;4853256;28;124428;-70
2022/09/21 09:52:02;;;;;;;6.00;1.30;;;;;;;19.61;49.06;102666.03;4875724;28;122754;-70
2022/09/21 09:54:33;;;;;;;4.40;1.35;;;;;;;19.69;48.36;102664.75;4857250;28;120014;-70
2022/09/21 09:57:03;;;;;;;4.32;1.08;;;;;;;19.69;48.42;102662.06;4868385;28;119708;-70
2022/09/21 09:59:39;;;;;;;5.85;1.10;;;;;;;19.67;48.14;102658.59;4893022;28;123012;-69
2022/09/21 10:02:17;;;;;;;8.75;1.38;;;;;;;19.68;48.43;102660.31;4879066;28;123712;-70
2022/09/21 10:05:00;;;;;;;5.28;1.15;;;;;;;19.72;48.47;102649.34;4873432;28;120184;-70
2022/09/21 10:07:36;;;;;;;4.18;1.00;;;;;;;19.77;48.06;102662.53;4885390;28;119690;-70
2022/09/21 10:10:35;;;;;;;3.65;1.08;;;;;;;19.81;47.87;102656.03;4871700;28;124163;-70
2022/09/21 10:13:20;;;;;;;3.15;0.80;;;;;;;19.85;47.89;102652.22;4865602;28;125193;-70
2022/09/21 10:16:08;;;;;;;4.57;1.05;;;;;;;19.91;47.87;102651.91;4876713;28;119358;-70
2022/09/21 10:18:38;;;;;;;2.90;0.93;;;;;;;20.00;47.12;102656.75;4855614;28;119360;-70
2022/09/21 10:21:08;;;;;;;3.15;0.98;;;;;;;20.06;46.81;102660.03;4871347;28;125151;-70
2022/09/21 10:23:37;;;;;;;3.58;1.00;;;;;;;20.10;47.17;102661.59;4872575;28;123645;-70
2022/09/21 10:26:08;;;;;;;3.72;1.00;;;;;;;20.15;46.27;102654.13;4872367;28;118458;-70
2022/09/21 10:28:35;;;;;;;4.57;0.93;;;;;;;20.21;46.33;102649.28;4901121;28;118235;-70
2022/09/21 10:31:15;;;;;;;3.38;0.80;;;;;;;20.23;45.45;102641.13;4869340;28;124137;-70
2022/09/21 10:33:52;;;;;;;4.03;0.88;;;;;;;20.26;45.78;102643.63;4878699;28;125551;-70
2022/09/21 10:36:32;;;;;;;2.80;0.77;;;;;;;20.29;46.16;102645.31;4877866;28;119446;-70
2022/09/21 10:39:16;;;;;;;4.20;1.02;;;;;;;20.32;45.26;102640.56;4867019;28;118528;-70
2022/09/21 10:41:48;;;;;;;2.80;0.80;;;;;;;20.40;45.29;102638.34;4867195;28;123848;-70
2022/09/21 10:44:21;;;;;;;2.80;0.85;;;;;;;20.46;44.27;102636.25;4873317;28;124008;-70
2022/09/21 10:46:49;;;;;;;4.57;0.85;;;;;;;20.51;44.58;102628.75;4869498;28;119302;-70
2022/09/21 10:49:24;;;;;;;2.45;0.85;;;;;;;20.59;43.22;102637.25;4884150;28;118235;-70
2022/09/21 10:51:54;;;;;;;5.38;0.90;;;;;;;20.61;43.39;102632.69;4868000;28;123290;-70
2022/09/21 10:54:26;;;;;;;1.70;0.50;;;;;;;20.64;42.41;102629.78;4886054;28;123812;-70
2022/09/21 10:57:00;;;;;;;4.80;0.73;;;;;;;20.67;42.15;102629.63;4881081;28;120469;-70
2022/09/21 10:59:31;;;;;;;2.40;0.82;;;;;;;20.68;42.30;102625.97;4885397;28;119740;-70
2022/09/21 11:02:00;;;;;;;4.22;1.00;;;;;;;20.68;42.35;102631.38;4880526;28;124659;-70
2022/09/21 11:04:50;;;;;;;2.30;0.70;;;;;;;20.67;42.42;102635.00;4885961;28;124916;-70
2022/09/21 11:07:26;;;;;;;2.83;0.75;;;;;;;20.63;42.45;102633.47;4861984;28;119181;-70
2022/09/21 11:10:01;;;;;;;2.83;0.80;;;;;;;20.61;41.98;102630.00;4872433;28;118764;-70
2022/09/21 11:13:16;;;;;;;1.67;0.60;;;;;;;20.56;42.36;102629.34;4869025;28;124284;-70
2022/09/21 11:15:53;;;;;;;2.75;0.80;;;;;;;20.51;41.95;102628.75;4872722;28;123735;-70
2022/09/21 11:18:29;;;;;;;2.28;0.63;;;;;;;20.48;41.77;102634.34;4872325;28;119105;-70
2022/09/21 11:21:07;;;;;;;1.60;0.60;;;;;;;20.41;41.88;102629.28;4869611;28;118812;-69
2022/09/21 11:23:46;;;;;;;3.38;0.73;;;;;;;20.38;41.90;102624.09;4869036;28;124987;-70
2022/09/21 11:26:39;;;;;;;5.10;0.90;;;;;;;20.36;41.92;102626.00;4878559;28;123103;-70
2022/09/21 11:29:25;;;;;;;3.58;0.80;;;;;;;20.35;42.14;102628.78;4904204;28;119022;-69
2022/09/21 11:32:25;;;;;;;2.88;0.80;;;;;;;20.33;42.11;102620.81;4874924;28;117802;-69
2022/09/21 11:35:16;;;;;;;3.87;0.90;;;;;;;20.33;42.22;102626.19;4874026;28;123838;-70
2022/09/21 11:38:10;;;;;;;2.30;0.60;;;;;;;20.31;41.78;102622.72;4861449;28;123671;-70
2022/09/21 11:40:56;;;;;;;4.60;0.80;;;;;;;20.30;41.69;102620.97;4847099;28;118427;-70
2022/09/21 11:43:49;;;;;;;2.15;0.80;;;;;;;20.28;41.27;102622.88;4882283;28;119164;-70
2022/09/21 11:46:33;;;;;;;3.70;0.77;;;;;;;20.23;41.57;102614.22;4868482;28;124198;-70
2022/09/21 11:49:38;;;;;;;4.30;0.68;;;;;;;20.22;41.66;102617.88;4881767;28;122815;-70
2022/09/21 11:52:20;;;;;;;3.28;0.80;;;;;;;20.19;41.40;102618.03;4875958;28;119982;-70